CDT,Max TemperatureF,Mean TemperatureF,Min TemperatureF,Max Dew PointF,MeanDew PointF,Min DewpointF,Max Humidity, Mean Humidity, Min Humidity, Max Sea Level PressureIn, Mean Sea Level PressureIn, Min Sea Level PressureIn, Max VisibilityMiles, Mean VisibilityMiles, Min VisibilityMiles, Max Wind SpeedMPH, Mean Wind SpeedMPH, Max Gust SpeedMPH,PrecipitationIn, CloudCover, Events, WindDirDegrees
2013-6-1,78,72,66,70,65,61,90,77,64,30.03,29.95,29.81,10,8,1,20,7,31,0.84,6,Rain-Thunderstorm,237
2013-6-2,81,73,64,65,63,58,87,71,54,29.97,29.93,29.88,10,10,10,12,4,18,T,6,Rain,289
2013-6-3,77,68,58,61,57,53,90,68,46,30.05,30.00,29.95,10,10,10,10,3,15,0.00,3,,2
2013-6-4,82,68,54,60,57,53,93,68,43,30.07,30.03,29.99,10,10,10,10,3,14,0.00,1,,82
2013-6-5,84,74,64,67,64,59,87,71,55,29.99,29.92,29.84,10,10,10,12,4,15,T,2,,155
2013-6-6,80,73,65,70,67,63,93,78,62,29.84,29.81,29.76,10,10,6,15,3,21,0.19,6,Rain-Thunderstorm,242
2013-6-7,84,75,65,66,64,58,93,68,43,29.86,29.80,29.76,10,8,2,12,2,16,0.08,3,Rain,340
2013-6-8,82,73,64,66,62,55,93,67,40,30.02,29.96,29.85,10,7,4,12,3,16,0.00,5,,228
2013-6-9,82,71,60,70,63,57,97,82,67,30.05,29.99,29.87,10,7,1,15,5,21,0.84,4,Rain-Thunderstorm,156
2013-6-10,82,74,65,68,65,62,90,74,58,29.94,29.88,29.83,10,10,2,16,5,22,0.08,5,Rain,228
2013-6-11,90,75,60,70,62,57,97,70,43,30.01,29.97,29.94,10,5,0,12,3,15,0.00,0,Fog,218
2013-6-12,95,87,79,74,72,69,79,63,46,30.03,29.93,29.85,10,10,10,20,10,25,0.00,0,,232
2013-6-13,88,78,68,72,67,57,74,63,51,29.96,29.85,29.78,10,10,10,21,10,30,0.00,3,,282
2013-6-14,83,71,58,60,56,53,81,59,37,30.05,30.01,29.95,10,10,10,10,3,15,0.00,0,,7
2013-6-15,88,74,60,63,60,57,93,65,36,30.11,30.05,30.00,10,10,10,14,3,22,0.00,0,,196
2013-6-16,88,78,67,69,66,62,87,69,50,30.06,30.00,29.96,10,10,10,16,5,22,0.00,2,,231
2013-6-17,90,80,69,70,68,65,93,72,50,29.99,29.94,29.87,10,10,8,25,6,37,0.07,3,Rain,191
2013-6-18,86,77,67,67,65,63,93,71,48,29.96,29.92,29.86,10,10,5,12,5,15,0.25,6,Rain,24
2013-6-19,87,76,65,65,63,61,87,65,43,30.09,30.02,29.95,10,10,10,10,3,13,0.00,0,,58
2013-6-20,89,78,67,68,65,63,87,65,43,30.16,30.13,30.09,10,10,10,15,2,18,0.00,1,Thunderstorm,115
2013-6-21,89,77,65,69,66,62,93,72,50,30.21,30.16,30.11,10,10,10,14,5,17,0.00,1,Thunderstorm,169
2013-6-22,89,78,66,68,66,63,93,68,43,30.20,30.13,30.07,10,10,8,13,4,16,0.00,2,Thunderstorm,192
2013-6-23,88,78,67,69,65,60,90,66,42,30.15,30.10,30.06,10,10,10,15,4,21,0.00,0,,174
2013-6-24,88,79,70,70,68,66,90,74,57,30.18,30.11,30.07,10,10,10,17,5,26,0.00,1,Thunderstorm,195
2013-6-25,94,81,68,73,70,66,97,72,46,30.09,30.02,29.94,10,10,8,15,7,23,0.00,1,,208
2013-6-26,93,82,71,72,70,67,87,67,46,29.98,29.90,29.78,10,10,10,22,11,33,0.01,2,Rain-Thunderstorm,217
2013-6-27,94,84,73,75,71,64,87,66,44,29.86,29.83,29.79,10,10,10,15,7,22,0.00,4,,276
2013-6-28,90,80,69,70,67,62,84,63,41,29.80,29.73,29.65,10,10,10,16,6,23,T,2,,260
2013-6-29,88,77,66,64,62,60,84,62,40,29.70,29.66,29.61,10,10,10,17,6,24,T,1,,261
2013-6-30,82,73,64,64,62,59,93,71,49,29.80,29.75,29.69,10,10,10,10,3,13,0.01,5,,304